Time;durP1;ratioP1;P1;durP2;ratioP2;P2;SDS_P1;SDS_P2;PMS_P1;PMS_P2;Temp;Humidity;BMP_temperature;BMP_pressure;BME280_temperature;BME280_humidity;BME280_pressure;Samples;Min_cycle;Max_cycle;Signal;HPM_P1;HPM_P2
2023/03/15 00:00:19;;;;;;;1.10;0.90;;;;;;;;;;5119380;28;20210;-67
2023/03/15 00:02:47;;;;;;;2.10;0.95;;;;;;;;;;5119627;28;20713;-67
2023/03/15 00:05:14;;;;;;;1.40;0.98;;;;;;;;;;5119368;28;20237;-67
2023/03/15 00:07:42;;;;;;;1.30;1.13;;;;;;;;;;5119164;28;20203;-68
2023/03/15 00:10:10;;;;;;;1.10;0.80;;;;;;;;;;5119547;28;20203;-67
2023/03/15 00:12:38;;;;;;;1.35;0.90;;;;;;;;;;5119530;28;20214;-67
2023/03/15 00:15:08;;;;;;;1.50;1.00;;;;;;;;;;5118974;28;20203;-67
2023/03/15 00:17:36;;;;;;;1.80;1.00;;;;;;;;;;5119219;28;20673;-67
2023/03/15 00:20:03;;;;;;;1.40;1.00;;;;;;;;;;5119140;28;20203;-67
2023/03/15 00:22:31;;;;;;;1.83;0.90;;;;;;;;;;5119409;28;20206;-67
2023/03/15 00:24:59;;;;;;;1.38;0.90;;;;;;;;;;5119117;28;20230;-67
2023/03/15 00:27:27;;;;;;;1.20;0.90;;;;;;;;;;5118906;28;20313;-67
2023/03/15 00:29:54;;;;;;;1.55;0.80;;;;;;;;;;5118439;28;20218;-67
2023/03/15 00:32:24;;;;;;;0.85;0.80;;;;;;;;;;5119008;28;20207;-67
2023/03/15 00:34:53;;;;;;;1.00;0.70;;;;;;;;;;5118775;28;20203;-67
2023/03/15 00:37:24;;;;;;;1.25;0.80;;;;;;;;;;5119190;28;20726;-67
2023/03/15 00:39:54;;;;;;;1.00;0.90;;;;;;;;;;5119611;28;20616;-67
2023/03/15 00:42:26;;;;;;;1.10;0.90;;;;;;;;;;5118844;28;20206;-67
2023/03/15 00:44:55;;;;;;;1.33;0.85;;;;;;;;;;5118591;28;20226;-67
2023/03/15 00:47:24;;;;;;;0.90;0.75;;;;;;;;;;5118620;28;20202;-67
2023/03/15 00:49:52;;;;;;;1.10;0.90;;;;;;;;;;5118737;28;20239;-67
2023/03/15 00:52:20;;;;;;;1.55;1.00;;;;;;;;;;5118149;28;20639;-67
2023/03/15 00:54:52;;;;;;;1.00;0.80;;;;;;;;;;5118284;28;20206;-67
2023/03/15 00:57:20;;;;;;;1.50;0.98;;;;;;;;;;5118370;28;20211;-68
2023/03/15 00:59:47;;;;;;;0.85;0.70;;;;;;;;;;5118421;28;20207;-67
2023/03/15 01:02:15;;;;;;;1.30;0.80;;;;;;;;;;5118194;28;20218;-67
2023/03/15 01:04:44;;;;;;;1.17;0.88;;;;;;;;;;5118231;28;20250;-67
2023/03/15 01:07:12;;;;;;;1.20;0.80;;;;;;;;;;5118259;28;20239;-67
2023/03/15 01:09:40;;;;;;;1.13;0.75;;;;;;;;;;5118189;28;20202;-67
2023/03/15 01:12:09;;;;;;;1.75;1.00;;;;;;;;;;5118411;28;20203;-67
2023/03/15 01:14:37;;;;;;;1.13;0.82;;;;;;;;;;5118300;28;20643;-67
2023/03/15 01:17:05;;;;;;;1.17;0.90;;;;;;;;;;5118084;28;20299;-67
2023/03/15 01:19:33;;;;;;;1.17;1.00;;;;;;;;;;5117831;28;20331;-67
2023/03/15 01:22:02;;;;;;;1.35;0.93;;;;;;;;;;5118035;28;20579;-67
2023/03/15 01:24:30;;;;;;;2.00;0.95;;;;;;;;;;5118320;28;20279;-67
2023/03/15 01:26:58;;;;;;;0.82;0.70;;;;;;;;;;5118355;28;20207;-67
2023/03/15 01:29:26;;;;;;;1.40;0.95;;;;;;;;;;5117981;28;20638;-67
2023/03/15 01:31:54;;;;;;;0.90;0.75;;;;;;;;;;5118057;28;20487;-67
2023/03/15 01:34:22;;;;;;;0.77;0.70;;;;;;;;;;5117702;28;20210;-68
2023/03/15 01:36:52;;;;;;;1.70;0.80;;;;;;;;;;5117903;28;20267;-68
2023/03/15 01:39:21;;;;;;;1.58;0.90;;;;;;;;;;5118101;28;20344;-67
2023/03/15 01:41:49;;;;;;;0.95;0.70;;;;;;;;;;5116796;28;20253;-67
2023/03/15 01:44:18;;;;;;;1.20;0.93;;;;;;;;;;5117297;28;20237;-67
2023/03/15 01:46:45;;;;;;;0.98;0.75;;;;;;;;;;5117588;28;20203;-67
2023/03/15 01:49:14;;;;;;;1.13;0.88;;;;;;;;;;5117880;28;20203;-67
2023/03/15 01:51:44;;;;;;;1.02;0.82;;;;;;;;;;5117559;28;20298;-67
2023/03/15 01:54:14;;;;;;;1.05;0.82;;;;;;;;;;5117347;28;20229;-67
2023/03/15 01:56:46;;;;;;;1.63;0.85;;;;;;;;;;5117674;28;20213;-68
2023/03/15 01:59:16;;;;;;;0.90;0.70;;;;;;;;;;5117552;28;20210;-68
2023/03/15 02:01:44;;;;;;;0.77;0.65;;;;;;;;;;5117752;28;20211;-68
2023/03/15 02:04:14;;;;;;;1.15;0.90;;;;;;;;;;5117770;28;20246;-67
2023/03/15 02:06:45;;;;;;;0.88;0.73;;;;;;;;;;5110329;28;20234;-67
2023/03/15 02:09:15;;;;;;;1.05;0.80;;;;;;;;;;5117296;28;20207;-67
2023/03/15 02:11:44;;;;;;;1.10;0.80;;;;;;;;;;5117432;28;20259;-67
2023/03/15 02:14:13;;;;;;;1.02;0.82;;;;;;;;;;5117339;28;20289;-67
2023/03/15 02:16:40;;;;;;;0.60;0.60;;;;;;;;;;5117351;28;20226;-67
2023/03/15 02:19:12;;;;;;;1.30;0.70;;;;;;;;;;5117728;28;20210;-67
2023/03/15 02:21:45;;;;;;;0.80;0.68;;;;;;;;;;5117936;28;20203;-67
2023/03/15 02:24:19;;;;;;;0.75;0.73;;;;;;;;;;5117507;28;20203;-67
2023/03/15 02:26:50;;;;;;;0.77;0.60;;;;;;;;;;5117303;28;20666;-67
2023/03/15 02:29:20;;;;;;;0.82;0.70;;;;;;;;;;5117312;28;20211;-67
2023/03/15 02:31:48;;;;;;;1.10;0.80;;;;;;;;;;5117427;28;20204;-67
2023/03/15 02:34:16;;;;;;;0.80;0.80;;;;;;;;;;5117557;28;20288;-67
2023/03/15 02:36:43;;;;;;;0.68;0.55;;;;;;;;;;5117434;28;20210;-68
2023/03/15 02:39:15;;;;;;;1.10;0.73;;;;;;;;;;5117493;28;20207;-67
2023/03/15 02:41:44;;;;;;;1.00;0.68;;;;;;;;;;5117125;28;20218;-67
2023/03/15 02:44:15;;;;;;;0.77;0.65;;;;;;;;;;5116941;28;20298;-67
2023/03/15 02:46:44;;;;;;;0.95;0.90;;;;;;;;;;5117352;28;20321;-67
2023/03/15 02:49:12;;;;;;;1.02;0.70;;;;;;;;;;5117345;28;20246;-67
2023/03/15 02:51:40;;;;;;;0.80;0.63;;;;;;;;;;5117144;28;20297;-67
2023/03/15 02:54:08;;;;;;;0.77;0.63;;;;;;;;;;5119158;28;20988;-67
2023/03/15 02:56:36;;;;;;;1.02;0.65;;;;;;;;;;5120816;28;20198;-67
2023/03/15 02:59:03;;;;;;;1.38;0.75;;;;;;;;;;5121019;28;20205;-67
2023/03/15 03:01:31;;;;;;;0.80;0.60;;;;;;;;;;5109724;28;20285;-67
2023/03/15 03:04:00;;;;;;;1.75;0.90;;;;;;;;;;5116046;28;20211;-67
2023/03/15 03:06:28;;;;;;;0.90;0.60;;;;;;;;;;5120909;28;20226;-68
2023/03/15 03:08:56;;;;;;;1.33;0.70;;;;;;;;;;5120204;28;20281;-67
2023/03/15 03:11:24;;;;;;;1.02;0.70;;;;;;;;;;5120191;28;20203;-67
2023/03/15 03:13:52;;;;;;;0.95;0.65;;;;;;;;;;5120226;28;20226;-67
2023/03/15 03:16:21;;;;;;;0.70;0.63;;;;;;;;;;5120361;28;20248;-67
2023/03/15 03:18:50;;;;;;;0.70;0.63;;;;;;;;;;5120650;28;20203;-67
2023/03/15 03:21:19;;;;;;;0.90;0.80;;;;;;;;;;5120112;28;20601;-67
2023/03/15 03:23:47;;;;;;;0.90;0.70;;;;;;;;;;5120151;28;20211;-67
2023/03/15 03:26:15;;;;;;;1.15;0.70;;;;;;;;;;5120271;28;20321;-68
2023/03/15 03:28:44;;;;;;;0.98;0.63;;;;;;;;;;5120162;28;20263;-67
2023/03/15 03:31:17;;;;;;;1.25;0.70;;;;;;;;;;5120498;28;20198;-67
2023/03/15 03:33:44;;;;;;;1.38;0.80;;;;;;;;;;5120072;28;20293;-67
2023/03/15 03:36:13;;;;;;;1.00;0.70;;;;;;;;;;5120129;28;20779;-67
2023/03/15 03:38:42;;;;;;;0.90;0.70;;;;;;;;;;5119957;28;20210;-67
2023/03/15 03:41:11;;;;;;;1.08;0.73;;;;;;;;;;5120299;28;20600;-67
2023/03/15 03:43:39;;;;;;;2.15;0.90;;;;;;;;;;5119894;28;20284;-67
2023/03/15 03:46:06;;;;;;;0.70;0.50;;;;;;;;;;5119936;28;20558;-67
2023/03/15 03:48:34;;;;;;;1.10;0.80;;;;;;;;;;5119533;28;20264;-67
2023/03/15 03:51:02;;;;;;;0.80;0.75;;;;;;;;;;5119427;28;20289;-67
2023/03/15 03:53:30;;;;;;;0.68;0.65;;;;;;;;;;5119674;28;20528;-67
2023/03/15 03:56:02;;;;;;;0.98;0.80;;;;;;;;;;5119239;28;20206;-67
2023/03/15 03:58:30;;;;;;;0.85;0.60;;;;;;;;;;5119467;28;20203;-67
2023/03/15 04:00:58;;;;;;;0.60;0.60;;;;;;;;;;5119461;28;20203;-67
2023/03/15 04:03:27;;;;;;;0.70;0.70;;;;;;;;;;5119870;28;20480;-67
2023/03/15 04:05:55;;;;;;;1.08;0.60;;;;;;;;;;5118851;28;20227;-67
2023/03/15 04:08:23;;;;;;;0.70;0.60;;;;;;;;;;5119650;28;20488;-67
2023/03/15 04:10:52;;;;;;;0.77;0.60;;;;;;;;;;5119828;28;20468;-67
2023/03/15 04:13:21;;;;;;;1.20;0.75;;;;;;;;;;5119481;28;20214;-67
2023/03/15 04:15:49;;;;;;;1.10;0.68;;;;;;;;;;5119263;28;20630;-67
2023/03/15 04:18:17;;;;;;;0.75;0.63;;;;;;;;;;5119070;28;20249;-67
2023/03/15 04:20:46;;;;;;;0.75;0.70;;;;;;;;;;5118826;28;20203;-67
2023/03/15 04:23:14;;;;;;;0.70;0.57;;;;;;;;;;5119607;28;20290;-67
2023/03/15 04:25:42;;;;;;;2.05;0.77;;;;;;;;;;5118998;28;20227;-67
2023/03/15 04:28:10;;;;;;;0.82;0.70;;;;;;;;;;5118997;28;20216;-67
2023/03/15 04:30:41;;;;;;;1.35;0.70;;;;;;;;;;5119132;28;20472;-67
2023/03/15 04:33:10;;;;;;;0.93;0.65;;;;;;;;;;5118589;28;20209;-67
2023/03/15 04:35:38;;;;;;;1.40;0.68;;;;;;;;;;5118549;28;20199;-67
2023/03/15 04:38:07;;;;;;;0.57;0.50;;;;;;;;;;5118960;28;20492;-67
2023/03/15 04:40:35;;;;;;;0.75;0.70;;;;;;;;;;5118292;28;20298;-67
2023/03/15 04:43:03;;;;;;;1.23;0.80;;;;;;;;;;5118516;28;20215;-67
2023/03/15 04:45:32;;;;;;;1.27;0.90;;;;;;;;;;5118290;28;20249;-67
2023/03/15 04:48:01;;;;;;;0.82;0.63;;;;;;;;;;5118097;28;20263;-67
2023/03/15 04:50:29;;;;;;;1.15;0.75;;;;;;;;;;5118291;28;20301;-67
2023/03/15 04:52:58;;;;;;;0.77;0.68;;;;;;;;;;5118635;28;20327;-67
2023/03/15 04:55:26;;;;;;;0.70;0.60;;;;;;;;;;5118021;28;20245;-67
2023/03/15 04:57:54;;;;;;;1.15;0.60;;;;;;;;;;5118005;28;20203;-67
2023/03/15 05:00:22;;;;;;;0.95;0.82;;;;;;;;;;5118419;28;20246;-67
2023/03/15 05:02:53;;;;;;;0.80;0.70;;;;;;;;;;5118704;28;20289;-67
2023/03/15 05:05:23;;;;;;;0.80;0.75;;;;;;;;;;5117879;28;20238;-67
2023/03/15 05:07:51;;;;;;;0.70;0.52;;;;;;;;;;5118159;28;20238;-67
2023/03/15 05:10:19;;;;;;;0.73;0.65;;;;;;;;;;5117990;28;20585;-67
2023/03/15 05:12:46;;;;;;;0.77;0.57;;;;;;;;;;5118062;28;20225;-67
2023/03/15 05:15:14;;;;;;;0.80;0.70;;;;;;;;;;5117853;28;20283;-67
2023/03/15 05:17:45;;;;;;;1.08;0.60;;;;;;;;;;5116603;28;20227;-67
2023/03/15 05:20:13;;;;;;;0.93;0.80;;;;;;;;;;5117673;28;20268;-67
2023/03/15 05:22:43;;;;;;;0.60;0.60;;;;;;;;;;5117007;28;20211;-67
2023/03/15 05:25:11;;;;;;;0.75;0.55;;;;;;;;;;5117646;28;20246;-67
2023/03/15 05:27:39;;;;;;;0.90;0.80;;;;;;;;;;5117360;28;20231;-67
2023/03/15 05:30:07;;;;;;;0.82;0.70;;;;;;;;;;5117547;28;20582;-67
2023/03/15 05:32:38;;;;;;;1.02;0.68;;;;;;;;;;5115043;28;20225;-67
2023/03/15 05:35:07;;;;;;;0.70;0.70;;;;;;;;;;5116059;28;20489;-67
2023/03/15 05:37:34;;;;;;;0.82;0.60;;;;;;;;;;5116496;28;20200;-67
2023/03/15 05:40:06;;;;;;;0.75;0.60;;;;;;;;;;5116947;28;20207;-67
2023/03/15 05:42:35;;;;;;;1.27;0.68;;;;;;;;;;5116984;28;20267;-67
2023/03/15 05:45:02;;;;;;;1.17;0.88;;;;;;;;;;5117361;28;20280;-67
2023/03/15 05:47:30;;;;;;;1.30;0.68;;;;;;;;;;5116701;28;20229;-67
2023/03/15 05:49:58;;;;;;;1.10;0.70;;;;;;;;;;5115797;28;20673;-67
2023/03/15 05:52:25;;;;;;;1.25;0.90;;;;;;;;;;5116897;28;20533;-67
2023/03/15 05:54:53;;;;;;;1.05;0.90;;;;;;;;;;5116427;28;20210;-67
2023/03/15 05:57:22;;;;;;;1.27;0.75;;;;;;;;;;5115835;28;20191;-67
2023/03/15 05:59:51;;;;;;;0.90;0.80;;;;;;;;;;5115854;28;20249;-67
2023/03/15 06:02:18;;;;;;;2.70;0.90;;;;;;;;;;5115568;28;20229;-67
2023/03/15 06:04:46;;;;;;;1.67;0.85;;;;;;;;;;5115917;28;20301;-67
2023/03/15 06:07:14;;;;;;;1.15;0.80;;;;;;;;;;5115218;28;20219;-67
2023/03/15 06:09:42;;;;;;;1.67;1.08;;;;;;;;;;5114364;28;20202;-67
2023/03/15 06:12:10;;;;;;;1.65;0.90;;;;;;;;;;5115574;28;20206;-67
2023/03/15 06:14:39;;;;;;;0.88;0.80;;;;;;;;;;5115032;28;20586;-67
2023/03/15 06:17:07;;;;;;;1.05;0.80;;;;;;;;;;5114510;28;20262;-67
2023/03/15 06:19:34;;;;;;;2.58;0.75;;;;;;;;;;5113691;28;20526;-67
2023/03/15 06:22:02;;;;;;;1.10;0.95;;;;;;;;;;5114183;28;20203;-67
2023/03/15 06:24:30;;;;;;;1.10;0.88;;;;;;;;;;5114798;28;20707;-67
2023/03/15 06:26:58;;;;;;;1.65;1.00;;;;;;;;;;5114559;28;20843;-67
2023/03/15 06:29:26;;;;;;;8.98;4.60;;;;;;;;;;5117102;28;20253;-67
2023/03/15 06:31:55;;;;;;;6.50;4.07;;;;;;;;;;5118143;28;20234;-67
2023/03/15 06:34:22;;;;;;;6.38;3.75;;;;;;;;;;5118490;28;20195;-67
2023/03/15 06:36:51;;;;;;;9.02;5.32;;;;;;;;;;5118227;28;20210;-67
2023/03/15 06:39:19;;;;;;;12.75;8.50;;;;;;;;;;5117866;28;20199;-67
2023/03/15 06:41:47;;;;;;;14.38;10.85;;;;;;;;;;5117296;28;20211;-67
2023/03/15 06:44:14;;;;;;;14.35;11.20;;;;;;;;;;5117992;28;20199;-67
2023/03/15 06:46:42;;;;;;;17.00;12.88;;;;;;;;;;5116714;28;20237;-67
2023/03/15 06:49:11;;;;;;;19.67;16.75;;;;;;;;;;5115502;28;20297;-67
2023/03/15 06:51:41;;;;;;;22.65;18.83;;;;;;;;;;5116508;28;20238;-67
2023/03/15 06:54:09;;;;;;;26.52;22.83;;;;;;;;;;5117384;28;20211;-67
2023/03/15 06:56:37;;;;;;;25.40;22.83;;;;;;;;;;5117018;28;20198;-67
2023/03/15 06:59:04;;;;;;;28.23;23.63;;;;;;;;;;5117775;28;20209;-67
2023/03/15 07:01:32;;;;;;;29.25;24.75;;;;;;;;;;5117916;28;20214;-67
2023/03/15 07:04:00;;;;;;;31.35;28.17;;;;;;;;;;5117839;28;20203;-67
2023/03/15 07:06:29;;;;;;;34.97;31.17;;;;;;;;;;5117929;28;20476;-67
2023/03/15 07:08:57;;;;;;;34.70;30.95;;;;;;;;;;5117858;28;20614;-67
2023/03/15 07:11:24;;;;;;;34.70;31.20;;;;;;;;;;5117742;28;20560;-67
2023/03/15 07:13:52;;;;;;;36.78;32.92;;;;;;;;;;5118610;28;20485;-67
2023/03/15 07:16:20;;;;;;;38.65;34.17;;;;;;;;;;5116521;28;20226;-67
2023/03/15 07:18:49;;;;;;;37.55;33.55;;;;;;;;;;5118376;28;20203;-67
2023/03/15 07:21:16;;;;;;;37.20;33.42;;;;;;;;;;5118104;28;20211;-67
2023/03/15 07:23:46;;;;;;;36.33;32.50;;;;;;;;;;5117961;28;20230;-67
2023/03/15 07:26:13;;;;;;;33.95;30.42;;;;;;;;;;5118436;28;20233;-67
2023/03/15 07:28:42;;;;;;;34.85;31.40;;;;;;;;;;5118358;28;20264;-67
2023/03/15 07:31:10;;;;;;;33.13;29.70;;;;;;;;;;5117712;28;20203;-67
2023/03/15 07:33:38;;;;;;;32.70;29.45;;;;;;;;;;5118132;28;20313;-67
2023/03/15 07:36:07;;;;;;;31.90;28.80;;;;;;;;;;5117686;28;20203;-67
2023/03/15 07:38:35;;;;;;;32.60;29.35;;;;;;;;;;5118173;28;20206;-67
2023/03/15 07:41:05;;;;;;;30.85;27.75;;;;;;;;;;5116100;28;20213;-67
2023/03/15 07:43:33;;;;;;;31.77;28.65;;;;;;;;;;5117709;28;20255;-67
2023/03/15 07:46:01;;;;;;;30.27;27.17;;;;;;;;;;5117306;28;20212;-67
2023/03/15 07:48:30;;;;;;;29.08;26.17;;;;;;;;;;5118405;28;20237;-67
2023/03/15 07:50:57;;;;;;;29.55;26.50;;;;;;;;;;5117817;28;20207;-67
2023/03/15 07:53:25;;;;;;;29.27;26.30;;;;;;;;;;5118664;28;20207;-67
2023/03/15 07:55:53;;;;;;;29.73;26.45;;;;;;;;;;5117683;28;20729;-67
2023/03/15 07:58:22;;;;;;;28.10;25.20;;;;;;;;;;5117606;28;20254;-67
2023/03/15 08:00:50;;;;;;;26.50;23.83;;;;;;;;;;5117508;28;20202;-67
2023/03/15 08:03:18;;;;;;;28.02;25.23;;;;;;;;;;5118000;28;20291;-67
2023/03/15 08:05:46;;;;;;;25.73;23.17;;;;;;;;;;5117922;28;20203;-67
2023/03/15 08:08:13;;;;;;;26.27;23.77;;;;;;;;;;5117432;28;20649;-67
2023/03/15 08:10:42;;;;;;;26.27;23.77;;;;;;;;;;5117842;28;20203;-67
2023/03/15 08:13:09;;;;;;;24.15;21.70;;;;;;;;;;5117761;28;20240;-67
2023/03/15 08:15:39;;;;;;;24.13;21.80;;;;;;;;;;5117400;28;20213;-67
2023/03/15 08:18:06;;;;;;;24.05;21.65;;;;;;;;;;5116906;28;20338;-67
2023/03/15 08:20:34;;;;;;;24.55;22.15;;;;;;;;;;5117037;28;20203;-67
2023/03/15 08:23:02;;;;;;;24.13;21.80;;;;;;;;;;5117487;28;20203;-68
2023/03/15 08:25:30;;;;;;;23.77;21.48;;;;;;;;;;5117318;28;20523;-67
2023/03/15 08:27:58;;;;;;;22.38;20.08;;;;;;;;;;5117509;28;20712;-67
2023/03/15 08:30:26;;;;;;;21.13;19.02;;;;;;;;;;5117361;28;20199;-67
2023/03/15 08:32:55;;;;;;;22.45;20.25;;;;;;;;;;5117559;28;20643;-67
2023/03/15 08:35:23;;;;;;;23.52;21.13;;;;;;;;;;5117496;28;20203;-67
2023/03/15 08:37:51;;;;;;;30.13;26.13;;;;;;;;;;5117866;28;20302;-67
2023/03/15 08:40:23;;;;;;;29.60;25.80;;;;;;;;;;5117108;28;20233;-67
2023/03/15 08:42:51;;;;;;;34.33;28.50;;;;;;;;;;5117870;28;20195;-67
2023/03/15 08:45:19;;;;;;;32.22;28.60;;;;;;;;;;5117215;28;20507;-67
2023/03/15 08:47:47;;;;;;;31.05;26.38;;;;;;;;;;5117444;28;20321;-67
2023/03/15 08:50:17;;;;;;;30.08;26.20;;;;;;;;;;5117260;28;20216;-67
2023/03/15 08:52:46;;;;;;;27.90;24.05;;;;;;;;;;5116811;28;20211;-67
2023/03/15 08:55:13;;;;;;;27.17;24.38;;;;;;;;;;5117364;28;20207;-67
2023/03/15 08:57:41;;;;;;;26.23;23.33;;;;;;;;;;5116979;28;20191;-67
2023/03/15 09:00:14;;;;;;;25.60;22.48;;;;;;;;;;5116388;28;20203;-67
2023/03/15 09:02:41;;;;;;;22.98;20.30;;;;;;;;;;5117038;28;20226;-67
2023/03/15 09:05:10;;;;;;;27.65;23.98;;;;;;;;;;5116101;28;20198;-67
2023/03/15 09:07:41;;;;;;;24.92;22.23;;;;;;;;;;5117298;28;20227;-67
2023/03/15 09:10:09;;;;;;;24.52;21.75;;;;;;;;;;5116283;28;20366;-67
2023/03/15 09:12:37;;;;;;;25.50;22.65;;;;;;;;;;5116723;28;20287;-67
2023/03/15 09:15:05;;;;;;;23.83;21.13;;;;;;;;;;5116830;28;20213;-67
2023/03/15 09:17:33;;;;;;;426.52;238.77;;;;;;;;;;5115829;28;20241;-67
2023/03/15 09:20:00;;;;;;;485.05;286.45;;;;;;;;;;5115942;28;20268;-67
2023/03/15 09:22:28;;;;;;;441.98;258.92;;;;;;;;;;5116016;28;20570;-67
2023/03/15 09:24:57;;;;;;;421.17;237.68;;;;;;;;;;5116867;28;20203;-67
2023/03/15 09:27:25;;;;;;;391.63;227.05;;;;;;;;;;5116772;28;20223;-67
2023/03/15 09:29:52;;;;;;;382.23;229.95;;;;;;;;;;5116806;28;20222;-67
2023/03/15 09:32:20;;;;;;;361.10;218.90;;;;;;;;;;5116125;28;20297;-67
2023/03/15 09:34:48;;;;;;;349.85;212.93;;;;;;;;;;5116082;28;20599;-67
2023/03/15 09:37:16;;;;;;;330.20;198.52;;;;;;;;;;5116580;28;20202;-67
2023/03/15 09:39:44;;;;;;;293.75;176.95;;;;;;;;;;5116688;28;20230;-67
2023/03/15 09:42:16;;;;;;;281.30;165.15;;;;;;;;;;5116255;28;20207;-67
2023/03/15 09:44:47;;;;;;;271.83;160.95;;;;;;;;;;5116170;28;20259;-67
2023/03/15 09:47:29;;;;;;;252.00;153.98;;;;;;;;;;5116259;28;20253;-67
2023/03/15 09:50:00;;;;;;;239.02;143.35;;;;;;;;;;5116146;28;20213;-67
2023/03/15 09:52:31;;;;;;;229.65;137.98;;;;;;;;;;5115788;28;20233;-67
2023/03/15 09:55:00;;;;;;;207.57;132.32;;;;;;;;;;5115838;28;20309;-67
2023/03/15 09:57:35;;;;;;;203.73;127.47;;;;;;;;;;5116846;28;20464;-67
2023/03/15 10:00:05;;;;;;;193.68;118.95;;;;;;;;;;5116036;28;20240;-67
2023/03/15 10:02:33;;;;;;;188.43;115.75;;;;;;;;;;5115750;28;20199;-67
2023/03/15 10:05:03;;;;;;;173.38;109.38;;;;;;;;;;5119474;28;20256;-67
2023/03/15 10:07:31;;;;;;;164.18;104.82;;;;;;;;;;5120699;28;20568;-67
2023/03/15 10:09:58;;;;;;;163.88;102.85;;;;;;;;;;5118773;28;20214;-67
2023/03/15 10:12:29;;;;;;;155.98;97.25;;;;;;;;;;5119162;28;20234;-67
2023/03/15 10:15:09;;;;;;;149.02;96.50;;;;;;;;;;5120219;28;20289;-67
2023/03/15 10:17:40;;;;;;;140.50;88.53;;;;;;;;;;5120120;28;20276;-67
2023/03/15 10:20:12;;;;;;;137.60;86.22;;;;;;;;;;5120139;28;20245;-67
2023/03/15 10:22:41;;;;;;;133.02;83.30;;;;;;;;;;5119476;28;20267;-67
2023/03/15 10:25:13;;;;;;;124.90;80.70;;;;;;;;;;5119570;28;20575;-67
2023/03/15 10:27:43;;;;;;;121.25;77.47;;;;;;;;;;5120458;28;20577;-67
2023/03/15 10:30:17;;;;;;;114.13;70.88;;;;;;;;;;5119666;28;20293;-67
2023/03/15 10:32:45;;;;;;;117.65;73.45;;;;;;;;;;5120232;28;20198;-67
2023/03/15 10:35:15;;;;;;;106.75;68.47;;;;;;;;;;5119332;28;20633;-67
2023/03/15 10:37:42;;;;;;;109.15;67.38;;;;;;;;;;5119534;28;20199;-67
2023/03/15 10:40:14;;;;;;;101.07;65.05;;;;;;;;;;5119457;28;20222;-67
2023/03/15 10:42:43;;;;;;;95.85;61.20;;;;;;;;;;5120056;28;20214;-67
2023/03/15 10:45:20;;;;;;;91.95;59.35;;;;;;;;;;5119547;28;20215;-67
2023/03/15 10:47:49;;;;;;;89.82;56.90;;;;;;;;;;5118448;28;20218;-67
2023/03/15 10:50:26;;;;;;;87.53;56.30;;;;;;;;;;5119493;28;20238;-67
2023/03/15 10:52:56;;;;;;;86.22;56.38;;;;;;;;;;5118317;28;20242;-67
2023/03/15 10:55:30;;;;;;;83.97;54.83;;;;;;;;;;5119250;28;20195;-67
2023/03/15 10:57:58;;;;;;;79.07;51.75;;;;;;;;;;5119030;28;20205;-67
2023/03/15 11:00:31;;;;;;;73.63;49.05;;;;;;;;;;5118796;28;20214;-67
2023/03/15 11:03:02;;;;;;;73.47;49.72;;;;;;;;;;5118756;28;20195;-67
2023/03/15 11:05:31;;;;;;;70.28;47.22;;;;;;;;;;5119381;28;20612;-67
2023/03/15 11:08:00;;;;;;;65.85;44.45;;;;;;;;;;5118646;28;20420;-67
2023/03/15 11:10:28;;;;;;;62.65;42.53;;;;;;;;;;5118312;28;20297;-67
2023/03/15 11:13:13;;;;;;;57.70;41.10;;;;;;;;;;5119249;28;20264;-67
2023/03/15 11:15:48;;;;;;;58.75;39.05;;;;;;;;;;5118849;28;20234;-67
2023/03/15 11:18:19;;;;;;;54.83;37.78;;;;;;;;;;5118335;28;20333;-67
2023/03/15 11:20:46;;;;;;;54.70;36.90;;;;;;;;;;5117975;28;20202;-67
2023/03/15 11:23:16;;;;;;;50.10;35.72;;;;;;;;;;5118014;28;20202;-67
2023/03/15 11:25:43;;;;;;;47.45;33.72;;;;;;;;;;5117618;28;20231;-68
2023/03/15 11:28:16;;;;;;;46.40;32.90;;;;;;;;;;5118204;28;20223;-67
2023/03/15 11:30:46;;;;;;;49.20;33.15;;;;;;;;;;5118068;28;20242;-67
2023/03/15 11:33:22;;;;;;;48.63;32.90;;;;;;;;;;5118021;28;20242;-67
2023/03/15 11:35:50;;;;;;;46.75;31.02;;;;;;;;;;5118382;28;20238;-67
2023/03/15 11:38:22;;;;;;;41.58;29.20;;;;;;;;;;5117772;28;20289;-67
2023/03/15 11:40:52;;;;;;;43.00;30.00;;;;;;;;;;5117734;28;20501;-67
2023/03/15 11:43:21;;;;;;;44.45;29.15;;;;;;;;;;5117812;28;20239;-67
2023/03/15 11:45:54;;;;;;;41.95;27.85;;;;;;;;;;5117107;28;20302;-67
2023/03/15 11:48:25;;;;;;;41.25;25.33;;;;;;;;;;5117679;28;20321;-67
2023/03/15 11:50:53;;;;;;;38.35;25.90;;;;;;;;;;5117443;28;20252;-67
2023/03/15 11:53:22;;;;;;;39.80;24.55;;;;;;;;;;5117280;28;20588;-67
2023/03/15 11:55:52;;;;;;;37.03;24.55;;;;;;;;;;5117303;28;20240;-67
2023/03/15 11:58:38;;;;;;;35.53;24.50;;;;;;;;;;5117830;28;20206;-67
2023/03/15 12:01:11;;;;;;;36.65;22.98;;;;;;;;;;5115318;28;20286;-67
2023/03/15 12:03:40;;;;;;;32.80;21.40;;;;;;;;;;5097268;28;20196;-67
2023/03/15 12:06:34;;;;;;;34.90;22.10;;;;;;;;;;5096705;28;20302;-67
2023/03/15 12:09:01;;;;;;;30.70;19.98;;;;;;;;;;5095900;28;20318;-67
2023/03/15 12:11:42;;;;;;;32.38;19.90;;;;;;;;;;5095407;28;20701;-67
2023/03/15 12:14:29;;;;;;;33.08;19.85;;;;;;;;;;5095802;28;20609;-67
2023/03/15 12:17:15;;;;;;;31.20;18.77;;;;;;;;;;5096229;28;20243;-67
2023/03/15 12:19:44;;;;;;;25.83;17.60;;;;;;;;;;5096275;28;20286;-67
2023/03/15 12:22:15;;;;;;;26.90;17.48;;;;;;;;;;5096229;28;20353;-67
2023/03/15 12:24:45;;;;;;;26.42;17.42;;;;;;;;;;5095314;28;20296;-67
2023/03/15 12:27:16;;;;;;;25.75;16.30;;;;;;;;;;5094788;28;20258;-67
2023/03/15 12:29:45;;;;;;;22.73;15.23;;;;;;;;;;5095977;28;20242;-67
2023/03/15 12:32:13;;;;;;;21.80;15.30;;;;;;;;;;5095972;28;20238;-67
2023/03/15 12:34:47;;;;;;;23.80;15.07;;;;;;;;;;5095921;28;20207;-67
2023/03/15 12:37:16;;;;;;;21.92;14.40;;;;;;;;;;5095761;28;20288;-67
2023/03/15 12:39:46;;;;;;;24.00;14.77;;;;;;;;;;5094350;28;20195;-67
2023/03/15 12:42:31;;;;;;;20.63;14.15;;;;;;;;;;5094702;28;20288;-67
2023/03/15 12:45:13;;;;;;;21.08;13.13;;;;;;;;;;5063658;28;20268;-67
2023/03/15 12:47:45;;;;;;;19.63;12.60;;;;;;;;;;5094243;28;20304;-67
2023/03/15 12:50:33;;;;;;;17.33;12.32;;;;;;;;;;5094738;28;20260;-67
2023/03/15 12:53:02;;;;;;;17.85;11.63;;;;;;;;;;5095226;28;20208;-67
2023/03/15 12:55:32;;;;;;;17.75;11.50;;;;;;;;;;5094844;28;20203;-67
2023/03/15 12:58:00;;;;;;;15.50;11.25;;;;;;;;;;5094856;28;20465;-67
2023/03/15 13:00:31;;;;;;;16.08;10.75;;;;;;;;;;5095622;28;20282;-67
2023/03/15 13:03:03;;;;;;;15.52;10.93;;;;;;;;;;5094982;28;20199;-67
2023/03/15 13:05:32;;;;;;;16.10;10.73;;;;;;;;;;5095139;28;20207;-67
2023/03/15 13:08:08;;;;;;;14.52;9.68;;;;;;;;;;5095355;28;20204;-67
2023/03/15 13:10:54;;;;;;;14.18;10.02;;;;;;;;;;5094598;28;20566;-67
2023/03/15 13:13:30;;;;;;;14.70;9.90;;;;;;;;;;5095351;28;20203;-67
2023/03/15 13:16:02;;;;;;;12.50;9.48;;;;;;;;;;5096089;28;20209;-67
2023/03/15 13:18:33;;;;;;;14.10;8.90;;;;;;;;;;5114637;28;20210;-67
2023/03/15 13:21:06;;;;;;;12.38;8.70;;;;;;;;;;5114208;28;20217;-67
2023/03/15 13:23:35;;;;;;;12.35;8.45;;;;;;;;;;5114131;28;20890;-67
2023/03/15 13:26:12;;;;;;;11.75;8.30;;;;;;;;;;5113417;28;20245;-67
2023/03/15 13:28:41;;;;;;;11.30;7.97;;;;;;;;;;5095284;28;20320;-67
2023/03/15 13:31:13;;;;;;;10.73;7.88;;;;;;;;;;5095139;28;20234;-67
2023/03/15 13:33:41;;;;;;;12.23;7.25;;;;;;;;;;5094412;28;20510;-67
2023/03/15 13:36:13;;;;;;;11.70;7.40;;;;;;;;;;5092716;28;20207;-67
2023/03/15 13:38:43;;;;;;;9.25;6.95;;;;;;;;;;5110555;28;20195;-67
2023/03/15 13:41:18;;;;;;;9.65;7.18;;;;;;;;;;5113968;28;20246;-67
2023/03/15 13:43:47;;;;;;;10.60;7.05;;;;;;;;;;5113983;28;20551;-67
2023/03/15 13:46:15;;;;;;;9.30;6.25;;;;;;;;;;5114435;28;20285;-67
2023/03/15 13:48:43;;;;;;;10.15;6.95;;;;;;;;;;5114701;28;20337;-67
2023/03/15 13:51:14;;;;;;;9.18;6.18;;;;;;;;;;5113916;28;20211;-67
2023/03/15 13:53:43;;;;;;;9.93;6.20;;;;;;;;;;5114471;28;20209;-67
2023/03/15 13:56:11;;;;;;;9.27;6.22;;;;;;;;;;5114604;28;20234;-67
2023/03/15 13:58:39;;;;;;;7.55;5.68;;;;;;;;;;5115434;28;20292;-67
2023/03/15 14:01:09;;;;;;;8.35;5.97;;;;;;;;;;5114172;28;20207;-67
2023/03/15 14:03:37;;;;;;;9.70;6.10;;;;;;;;;;5114977;28;20203;-68
2023/03/15 14:06:04;;;;;;;7.43;5.53;;;;;;;;;;5115235;28;20203;-67
2023/03/15 14:08:32;;;;;;;6.72;4.97;;;;;;;;;;5114191;28;20258;-67
2023/03/15 14:11:08;;;;;;;7.13;5.00;;;;;;;;;;5114771;28;20246;-67
2023/03/15 14:13:46;;;;;;;7.13;4.70;;;;;;;;;;5113509;28;20217;-67
2023/03/15 14:16:15;;;;;;;7.15;4.90;;;;;;;;;;5113490;28;20234;-67
2023/03/15 14:18:43;;;;;;;6.78;4.93;;;;;;;;;;5113666;28;20297;-67
2023/03/15 14:21:13;;;;;;;8.32;4.85;;;;;;;;;;5113372;28;20238;-67
2023/03/15 14:23:42;;;;;;;7.32;4.57;;;;;;;;;;5114460;28;20650;-67
2023/03/15 14:26:18;;;;;;;5.95;4.10;;;;;;;;;;5114130;28;20563;-67
2023/03/15 14:28:49;;;;;;;6.28;4.07;;;;;;;;;;5113561;28;20329;-67
2023/03/15 14:31:22;;;;;;;5.50;4.07;;;;;;;;;;5114880;28;20627;-67
2023/03/15 14:33:54;;;;;;;5.78;3.92;;;;;;;;;;5114368;28;20207;-67
2023/03/15 14:36:25;;;;;;;6.18;3.72;;;;;;;;;;5114866;28;20226;-67
2023/03/15 14:38:53;;;;;;;5.00;3.58;;;;;;;;;;5115073;28;20567;-67
2023/03/15 14:41:25;;;;;;;4.65;3.22;;;;;;;;;;5114397;28;20195;-67